Time;durP1;ratioP1;P1;durP2;ratioP2;P2;SDS_P1;SDS_P2;PMS_P1;PMS_P2;Temp;Humidity;BMP_temperature;BMP_pressure;BME280_temperature;BME280_humidity;BME280_pressure;Samples;Min_cycle;Max_cycle;Signal;HPM_P1;HPM_P2
2022/07/25 00:00:09;;;;;;;18.95;7.93;;;;;;;21.31;100.00;100899.31;5059492;28;20021;-66
2022/07/25 00:02:35;;;;;;;19.88;7.72;;;;;;;21.34;100.00;100891.13;5059080;28;20443;-65
2022/07/25 00:05:01;;;;;;;18.73;8.10;;;;;;;21.41;100.00;100893.50;5058976;28;20025;-66
2022/07/25 00:07:27;;;;;;;20.23;8.38;;;;;;;21.40;100.00;100882.81;5059391;28;20029;-65
2022/07/25 00:09:52;;;;;;;19.17;8.10;;;;;;;21.40;100.00;100885.50;5058876;28;20048;-66
2022/07/25 00:12:19;;;;;;;19.08;7.80;;;;;;;21.30;100.00;100876.06;5059177;28;20491;-66
2022/07/25 00:14:44;;;;;;;19.38;7.80;;;;;;;21.27;100.00;100874.38;5059020;28;20115;-66
2022/07/25 00:17:10;;;;;;;18.85;7.72;;;;;;;21.32;100.00;100874.19;5059022;28;20119;-66
2022/07/25 00:19:35;;;;;;;18.63;7.95;;;;;;;21.27;100.00;100876.19;5058883;28;20047;-65
2022/07/25 00:22:00;;;;;;;19.92;8.35;;;;;;;21.25;100.00;100861.00;5059011;28;20476;-65
2022/07/25 00:24:26;;;;;;;18.55;7.80;;;;;;;21.19;100.00;100866.63;5058763;28;20025;-66
2022/07/25 00:26:51;;;;;;;18.60;7.75;;;;;;;21.21;100.00;100867.41;5058966;28;20028;-65
2022/07/25 00:29:16;;;;;;;18.95;7.88;;;;;;;21.10;100.00;100861.63;5058967;28;20103;-64
2022/07/25 00:31:42;;;;;;;19.38;7.93;;;;;;;21.06;100.00;100854.59;5059027;28;20021;-66
2022/07/25 00:34:07;;;;;;;19.00;8.32;;;;;;;20.97;100.00;100857.63;5057718;28;20161;-66
2022/07/25 00:36:32;;;;;;;21.13;9.20;;;;;;;20.90;100.00;100854.31;5058853;28;20032;-64
2022/07/25 00:38:58;;;;;;;19.65;8.85;;;;;;;20.86;100.00;100845.50;5058967;28;20112;-65
2022/07/25 00:41:23;;;;;;;19.50;8.38;;;;;;;20.83;100.00;100847.44;5058788;28;20025;-66
2022/07/25 00:43:51;;;;;;;19.80;8.38;;;;;;;20.87;100.00;100841.00;5058640;28;20113;-66
2022/07/25 00:46:16;;;;;;;20.77;9.20;;;;;;;20.83;100.00;100837.56;5058511;28;20475;-66
2022/07/25 00:48:42;;;;;;;19.98;8.40;;;;;;;20.74;100.00;100840.59;5058771;28;20029;-66
2022/07/25 00:51:09;;;;;;;20.55;9.35;;;;;;;20.70;100.00;100834.47;5058425;28;20041;-65
2022/07/25 00:53:35;;;;;;;20.13;9.10;;;;;;;20.63;100.00;100837.41;5058567;28;20029;-65
2022/07/25 00:56:01;;;;;;;20.10;9.70;;;;;;;20.62;100.00;100832.97;5058605;28;20029;-66
2022/07/25 00:58:26;;;;;;;21.63;10.05;;;;;;;20.63;100.00;100829.34;5058725;28;20086;-65
2022/07/25 01:00:51;;;;;;;20.95;10.40;;;;;;;20.65;100.00;100824.78;5058692;28;20025;-64
2022/07/25 01:03:17;;;;;;;19.67;9.50;;;;;;;20.65;100.00;100822.09;5058634;28;20133;-64
2022/07/25 01:05:42;;;;;;;20.50;9.95;;;;;;;20.67;100.00;100818.47;5058374;28;20032;-64
2022/07/25 01:08:08;;;;;;;20.50;9.48;;;;;;;20.72;100.00;100816.50;5058960;28;20021;-66
2022/07/25 01:10:34;;;;;;;19.25;8.65;;;;;;;20.66;100.00;100814.06;5054279;28;20029;-65
2022/07/25 01:12:59;;;;;;;20.63;8.95;;;;;;;20.53;100.00;100810.91;5055174;28;20040;-66
2022/07/25 01:15:26;;;;;;;20.48;9.15;;;;;;;20.39;100.00;100807.88;5055335;28;20037;-64
2022/07/25 01:17:52;;;;;;;20.10;9.23;;;;;;;20.47;100.00;100800.38;5055460;28;20035;-64
2022/07/25 01:20:19;;;;;;;20.27;9.40;;;;;;;20.33;100.00;100795.53;5055384;28;20029;-64
2022/07/25 01:22:45;;;;;;;21.58;10.00;;;;;;;20.43;100.00;100797.88;5055263;28;20126;-65
2022/07/25 01:25:12;;;;;;;19.55;8.30;;;;;;;20.43;100.00;100796.09;5055002;28;20472;-64
2022/07/25 01:27:38;;;;;;;20.73;8.82;;;;;;;20.35;100.00;100792.81;5054836;28;20493;-65
2022/07/25 01:30:07;;;;;;;22.10;9.50;;;;;;;20.28;100.00;100789.47;5055106;28;20017;-63
2022/07/25 01:32:33;;;;;;;20.08;8.93;;;;;;;20.23;100.00;100786.09;5054880;28;20025;-65
2022/07/25 01:34:58;;;;;;;20.35;9.40;;;;;;;20.32;100.00;100784.88;5054745;28;20036;-64
2022/07/25 01:37:23;;;;;;;21.15;9.30;;;;;;;20.31;100.00;100789.34;5055133;28;20029;-64
2022/07/25 01:39:48;;;;;;;20.35;9.20;;;;;;;20.32;100.00;100783.06;5054720;28;20047;-65
2022/07/25 01:42:14;;;;;;;20.10;8.93;;;;;;;20.26;100.00;100785.97;5054746;28;20025;-65
2022/07/25 01:44:39;;;;;;;19.95;8.95;;;;;;;20.19;100.00;100776.41;5054014;28;20135;-64
2022/07/25 01:47:04;;;;;;;19.45;8.73;;;;;;;20.26;100.00;100775.25;5054843;28;20028;-64
2022/07/25 01:49:30;;;;;;;20.77;9.30;;;;;;;20.24;100.00;100774.44;5054382;28;20123;-64
2022/07/25 01:51:55;;;;;;;19.75;9.05;;;;;;;20.20;100.00;100760.22;5054858;28;20120;-64
2022/07/25 01:54:21;;;;;;;19.92;9.02;;;;;;;20.24;100.00;100763.69;5054410;28;20082;-64
2022/07/25 01:56:46;;;;;;;20.30;8.82;;;;;;;20.24;100.00;100760.13;5054420;28;20055;-64
2022/07/25 01:59:11;;;;;;;19.75;8.68;;;;;;;20.32;100.00;100752.66;5054713;28;20017;-64
2022/07/25 02:01:37;;;;;;;19.75;8.57;;;;;;;20.24;100.00;100746.69;5054516;28;20162;-64
2022/07/25 02:04:02;;;;;;;20.48;8.98;;;;;;;20.31;100.00;100751.78;5054433;28;20487;-64
2022/07/25 02:06:27;;;;;;;20.60;8.60;;;;;;;20.34;100.00;100748.09;5054249;28;20021;-64
2022/07/25 02:08:53;;;;;;;20.17;8.90;;;;;;;20.32;100.00;100741.94;5054334;28;20103;-64
2022/07/25 02:11:18;;;;;;;20.42;8.65;;;;;;;20.39;100.00;100748.81;5054323;28;20107;-64
2022/07/25 02:13:43;;;;;;;20.60;8.30;;;;;;;20.27;100.00;100744.78;5054100;28;20036;-64
2022/07/25 02:16:09;;;;;;;20.23;8.77;;;;;;;20.34;100.00;100753.47;5054099;28;20388;-65
2022/07/25 02:18:35;;;;;;;19.73;8.40;;;;;;;20.30;100.00;100739.31;5054358;28;20476;-64
2022/07/25 02:21:00;;;;;;;20.70;8.93;;;;;;;20.33;100.00;100747.25;5053827;28;20025;-64
2022/07/25 02:23:26;;;;;;;20.23;8.32;;;;;;;20.31;100.00;100742.84;5054064;28;20025;-64
2022/07/25 02:25:51;;;;;;;19.38;8.32;;;;;;;20.31;100.00;100737.47;5052906;28;20193;-65
2022/07/25 02:28:17;;;;;;;20.33;8.68;;;;;;;20.23;100.00;100743.16;5053879;28;20041;-64
2022/07/25 02:30:42;;;;;;;20.05;8.75;;;;;;;20.27;100.00;100743.91;5053623;28;20017;-64
2022/07/25 02:33:07;;;;;;;20.38;8.60;;;;;;;20.16;100.00;100734.44;5054128;28;20021;-64
2022/07/25 02:35:33;;;;;;;19.40;8.43;;;;;;;20.15;100.00;100724.66;5053836;28;20373;-64
2022/07/25 02:37:59;;;;;;;19.92;8.60;;;;;;;20.25;100.00;100722.47;5053638;28;20024;-64
2022/07/25 02:40:24;;;;;;;19.95;8.40;;;;;;;20.24;100.00;100725.22;5053878;28;20029;-64
2022/07/25 02:42:50;;;;;;;19.00;8.35;;;;;;;20.17;100.00;100719.25;5053741;28;20483;-64
2022/07/25 02:45:15;;;;;;;20.77;8.32;;;;;;;20.13;100.00;100721.16;5053624;28;20067;-64
2022/07/25 02:47:41;;;;;;;20.80;8.57;;;;;;;20.14;100.00;100714.84;5053657;28;20048;-65
2022/07/25 02:50:06;;;;;;;20.25;8.48;;;;;;;20.19;100.00;100704.81;5053488;28;20077;-64
2022/07/25 02:52:32;;;;;;;20.25;8.23;;;;;;;20.14;100.00;100712.16;5053691;28;20476;-65
2022/07/25 02:54:57;;;;;;;19.67;8.70;;;;;;;20.08;100.00;100715.09;5053642;28;20468;-64
2022/07/25 02:57:22;;;;;;;19.95;8.65;;;;;;;20.18;100.00;100713.81;5053321;28;20031;-64
2022/07/25 02:59:48;;;;;;;19.98;8.38;;;;;;;20.08;100.00;100708.81;5053315;28;20544;-64
2022/07/25 03:02:13;;;;;;;20.02;8.43;;;;;;;20.24;100.00;100712.72;5053269;28;20075;-63
2022/07/25 03:04:38;;;;;;;19.60;8.60;;;;;;;20.30;100.00;100699.03;5053225;28;20074;-64
2022/07/25 03:07:03;;;;;;;18.77;8.20;;;;;;;20.37;100.00;100708.63;5053460;28;20028;-64
2022/07/25 03:09:29;;;;;;;20.23;8.30;;;;;;;20.36;100.00;100704.16;5052943;28;20468;-64
2022/07/25 03:11:54;;;;;;;19.52;8.05;;;;;;;20.38;100.00;100690.69;5053128;28;20033;-64
2022/07/25 03:14:19;;;;;;;19.98;8.15;;;;;;;20.41;100.00;100687.88;5053401;28;20067;-64
2022/07/25 03:16:45;;;;;;;18.95;7.75;;;;;;;20.47;100.00;100687.63;5053088;28;20117;-64
2022/07/25 03:19:11;;;;;;;20.13;7.97;;;;;;;20.43;100.00;100680.66;5053144;28;20480;-64
2022/07/25 03:21:37;;;;;;;21.67;8.50;;;;;;;20.27;100.00;100680.38;5051752;28;20021;-64
2022/07/25 03:24:02;;;;;;;18.92;8.00;;;;;;;20.47;98.06;100679.56;5053123;28;20028;-66
2022/07/25 03:26:28;;;;;;;19.70;8.15;;;;;;;20.54;95.73;100681.09;5052962;28;20024;-63
2022/07/25 03:28:53;;;;;;;20.30;8.48;;;;;;;20.56;93.95;100678.34;5052823;28;20029;-63
2022/07/25 03:31:18;;;;;;;19.58;8.18;;;;;;;20.66;90.08;100682.47;5052642;28;20025;-64
2022/07/25 03:33:44;;;;;;;19.90;8.48;;;;;;;20.79;89.39;100680.13;5051824;28;20036;-63
2022/07/25 03:36:10;;;;;;;19.30;7.82;;;;;;;20.80;91.93;100678.34;5052601;28;20123;-64
2022/07/25 03:38:36;;;;;;;19.17;8.05;;;;;;;20.61;93.30;100680.88;5052577;28;20108;-64
2022/07/25 03:41:01;;;;;;;20.08;8.32;;;;;;;20.72;90.68;100678.63;5052775;28;20487;-64
2022/07/25 03:43:26;;;;;;;19.02;8.10;;;;;;;20.74;86.53;100679.47;5052892;28;20115;-64
2022/07/25 03:45:52;;;;;;;20.27;8.07;;;;;;;20.75;89.96;100686.59;5052481;28;20450;-64
2022/07/25 03:48:17;;;;;;;19.90;8.15;;;;;;;20.61;94.54;100686.25;5052496;28;20033;-64
2022/07/25 03:50:43;;;;;;;20.63;8.48;;;;;;;20.64;87.45;100683.41;5052320;28;20045;-64
2022/07/25 03:53:08;;;;;;;20.02;7.88;;;;;;;20.68;85.94;100674.34;5052566;28;20028;-64
2022/07/25 03:55:33;;;;;;;20.30;8.23;;;;;;;20.69;86.48;100684.13;5052429;28;20112;-64
2022/07/25 03:57:59;;;;;;;19.98;7.97;;;;;;;20.73;84.37;100677.69;5052396;28;20488;-64
2022/07/25 04:00:24;;;;;;;19.60;8.23;;;;;;;20.82;83.03;100671.94;5052606;28;20587;-64
2022/07/25 04:02:49;;;;;;;21.65;8.50;;;;;;;20.86;83.10;100662.81;5052354;28;20389;-63
2022/07/25 04:05:15;;;;;;;19.70;8.02;;;;;;;20.91;81.64;100659.94;5050975;28;20045;-64
2022/07/25 04:07:40;;;;;;;20.23;8.50;;;;;;;20.88;81.75;100663.66;5052736;28;20376;-64
2022/07/25 04:10:06;;;;;;;19.40;7.93;;;;;;;20.96;80.62;100657.09;5052380;28;20108;-64
2022/07/25 04:12:32;;;;;;;19.88;8.25;;;;;;;20.95;81.33;100656.19;5052183;28;20029;-64
2022/07/25 04:14:57;;;;;;;19.58;8.10;;;;;;;20.91;80.76;100662.63;5052395;28;20025;-64
2022/07/25 04:17:22;;;;;;;20.17;7.95;;;;;;;20.88;80.87;100660.97;5051356;28;20039;-64
2022/07/25 04:19:48;;;;;;;18.60;8.00;;;;;;;20.90;81.47;100653.72;5052083;28;20021;-64
2022/07/25 04:22:13;;;;;;;21.38;8.27;;;;;;;20.92;80.66;100655.47;5052405;28;20029;-64
2022/07/25 04:24:38;;;;;;;19.63;8.23;;;;;;;20.89;80.87;100657.31;5052378;28;20596;-64
2022/07/25 04:27:04;;;;;;;20.27;8.20;;;;;;;20.91;82.43;100651.88;5052525;28;20025;-65
2022/07/25 04:29:29;;;;;;;20.10;8.18;;;;;;;20.92;80.42;100655.47;5052128;28;20032;-64
2022/07/25 04:31:55;;;;;;;21.60;8.60;;;;;;;20.89;80.80;100657.31;5052251;28;20021;-64
2022/07/25 04:34:20;;;;;;;20.83;8.15;;;;;;;20.92;80.41;100660.84;5052199;28;20033;-64
2022/07/25 04:36:45;;;;;;;20.00;7.97;;;;;;;20.92;80.84;100667.06;5052359;28;20121;-64
2022/07/25 04:39:11;;;;;;;20.05;8.00;;;;;;;20.93;79.82;100662.59;5052414;28;20044;-64
2022/07/25 04:41:36;;;;;;;19.85;7.95;;;;;;;20.90;80.17;100669.81;5052535;28;20063;-64
2022/07/25 04:44:01;;;;;;;18.92;7.90;;;;;;;20.94;80.38;100669.69;5052207;28;20017;-65
2022/07/25 04:46:27;;;;;;;19.33;7.93;;;;;;;20.93;80.19;100662.59;5055960;28;20028;-67
2022/07/25 04:48:52;;;;;;;20.15;8.25;;;;;;;20.95;80.16;100655.34;5056085;28;20024;-64
2022/07/25 04:51:18;;;;;;;20.00;8.15;;;;;;;20.95;79.83;100653.50;5055536;28;20048;-63
2022/07/25 04:53:44;;;;;;;20.55;8.07;;;;;;;20.96;80.06;100647.22;5055862;28;20040;-65
2022/07/25 04:56:10;;;;;;;20.02;8.32;;;;;;;20.98;80.13;100642.63;5055771;28;20021;-65
2022/07/25 04:58:36;;;;;;;20.13;7.90;;;;;;;20.98;79.94;100647.13;5055554;28;20028;-64
2022/07/25 05:01:01;;;;;;;20.65;8.27;;;;;;;20.97;80.36;100659.72;5055615;28;20017;-67
2022/07/25 05:03:26;;;;;;;20.48;8.27;;;;;;;20.99;80.61;100659.66;5055666;28;20048;-66
2022/07/25 05:05:52;;;;;;;19.88;8.50;;;;;;;20.97;80.46;100654.34;5054271;28;20087;-65
2022/07/25 05:08:17;;;;;;;20.42;8.45;;;;;;;20.95;81.27;100656.19;5055548;28;20383;-65
2022/07/25 05:10:42;;;;;;;20.77;8.40;;;;;;;20.97;80.18;100658.81;5055548;28;20387;-64
2022/07/25 05:13:08;;;;;;;20.48;8.43;;;;;;;20.99;81.08;100656.97;5055376;28;20028;-64
2022/07/25 05:15:34;;;;;;;21.00;8.10;;;;;;;21.03;81.04;100651.38;5055669;28;20059;-65
2022/07/25 05:17:59;;;;;;;19.50;8.38;;;;;;;21.02;80.07;100665.75;5055578;28;20368;-64
2022/07/25 05:20:25;;;;;;;19.77;8.27;;;;;;;21.07;79.33;100666.44;5055247;28;20025;-66
2022/07/25 05:22:51;;;;;;;20.05;8.13;;;;;;;21.10;80.88;100661.88;5055361;28;20024;-67
2022/07/25 05:25:17;;;;;;;20.10;8.68;;;;;;;21.13;80.35;100659.94;5055058;28;20471;-64
2022/07/25 05:27:42;;;;;;;20.23;8.27;;;;;;;21.18;80.21;100651.69;5054828;28;20159;-66
2022/07/25 05:30:09;;;;;;;20.17;8.50;;;;;;;21.16;80.19;100659.81;5053874;28;20110;-68
2022/07/25 05:32:35;;;;;;;20.98;8.50;;;;;;;21.16;81.47;100659.81;5046896;28;20032;-65
2022/07/25 05:35:01;;;;;;;20.67;8.93;;;;;;;21.17;81.13;100660.66;5050941;28;20271;-66
2022/07/25 05:37:26;;;;;;;21.52;9.02;;;;;;;21.15;82.58;100663.41;5053320;28;20111;-65
2022/07/25 05:39:51;;;;;;;19.65;8.60;;;;;;;21.17;81.38;100671.41;5051705;28;20475;-66
2022/07/25 05:42:17;;;;;;;21.38;9.48;;;;;;;21.14;83.31;100664.34;5052710;28;20193;-65
2022/07/25 05:44:42;;;;;;;22.33;9.07;;;;;;;21.12;83.80;100668.94;5053017;28;20112;-64
2022/07/25 05:47:09;;;;;;;20.98;8.98;;;;;;;21.10;84.18;100668.13;5052703;28;20391;-66
2022/07/25 05:49:35;;;;;;;21.08;9.27;;;;;;;21.16;82.52;100665.19;5052695;28;20041;-65
2022/07/25 05:52:02;;;;;;;20.42;9.35;;;;;;;21.10;84.02;100649.31;5051681;28;20102;-65
2022/07/25 05:54:27;;;;;;;21.42;9.48;;;;;;;21.12;83.99;100660.88;5051694;28;20057;-65
2022/07/25 05:56:52;;;;;;;21.70;9.70;;;;;;;21.11;83.47;100669.00;5052402;28;20035;-65
2022/07/25 05:59:18;;;;;;;22.20;9.48;;;;;;;21.10;84.62;100676.19;5053069;28;20108;-65
2022/07/25 06:01:43;;;;;;;20.70;9.70;;;;;;;21.13;84.99;100680.53;5051546;28;20072;-65
2022/07/25 06:04:09;;;;;;;22.52;9.73;;;;;;;21.16;84.91;100681.31;5053112;28;20411;-64
2022/07/25 06:06:34;;;;;;;22.33;10.10;;;;;;;21.21;84.16;100684.66;5052382;28;20025;-66
2022/07/25 06:08:59;;;;;;;21.08;9.50;;;;;;;21.25;84.19;100686.28;5052145;28;20090;-64
2022/07/25 06:11:29;;;;;;;21.90;9.48;;;;;;;21.27;83.71;100686.22;5051896;28;20029;-64
2022/07/25 06:13:55;;;;;;;22.30;10.05;;;;;;;21.19;85.19;100686.53;5052532;28;20052;-65
2022/07/25 06:16:20;;;;;;;21.25;10.07;;;;;;;21.11;84.19;100687.81;5052316;28;20468;-64
2022/07/25 06:18:45;;;;;;;23.92;10.48;;;;;;;21.09;85.80;100681.63;5052737;28;20057;-66
2022/07/25 06:21:11;;;;;;;22.17;10.05;;;;;;;21.12;85.92;100690.44;5051685;28;20482;-65
2022/07/25 06:23:36;;;;;;;20.45;10.05;;;;;;;21.08;84.44;100683.44;5051987;28;20025;-66
2022/07/25 06:26:01;;;;;;;20.25;9.45;;;;;;;21.14;85.20;100687.69;5051460;28;20033;-64
2022/07/25 06:28:27;;;;;;;20.17;8.57;;;;;;;21.30;83.95;100690.59;5051852;28;20111;-64
2022/07/25 06:30:52;;;;;;;21.45;9.25;;;;;;;21.31;82.81;100693.22;5050587;28;20079;-65
2022/07/25 06:33:18;;;;;;;20.98;8.80;;;;;;;21.31;84.20;100689.66;5051869;28;20031;-65
2022/07/25 06:35:43;;;;;;;20.58;8.55;;;;;;;21.38;82.16;100699.22;5051913;28;20119;-65
2022/07/25 06:38:09;;;;;;;21.25;8.85;;;;;;;21.30;83.85;100702.19;5051068;28;20112;-68
2022/07/25 06:40:34;;;;;;;20.08;8.23;;;;;;;21.37;82.17;100692.94;5050158;28;20111;-66
2022/07/25 06:42:59;;;;;;;19.25;8.48;;;;;;;21.38;82.17;100688.44;5052085;28;20029;-67
2022/07/25 06:45:25;;;;;;;20.50;8.00;;;;;;;21.41;82.60;100696.38;5051629;28;20090;-68
2022/07/25 06:47:50;;;;;;;19.73;8.05;;;;;;;21.46;82.93;100697.03;5051871;28;20487;-67
2022/07/25 06:50:17;;;;;;;21.02;8.50;;;;;;;21.59;83.50;100706.34;5050541;28;20045;-67
2022/07/25 06:52:43;;;;;;;20.52;8.82;;;;;;;21.67;82.31;100699.75;5051718;28;20040;-66
2022/07/25 06:55:12;;;;;;;21.35;9.20;;;;;;;21.66;81.95;100692.66;5047728;28;20033;-64
2022/07/25 06:57:37;;;;;;;19.88;8.75;;;;;;;21.70;83.45;100702.34;5051435;28;20028;-65
2022/07/25 07:00:08;;;;;;;21.63;9.13;;;;;;;21.67;83.60;100692.59;5051747;28;20037;-65
2022/07/25 07:02:34;;;;;;;20.63;8.85;;;;;;;21.73;83.53;100702.19;5051491;28;20025;-67
2022/07/25 07:04:59;;;;;;;22.52;8.93;;;;;;;21.66;83.84;100696.22;5049131;28;20032;-67
2022/07/25 07:07:24;;;;;;;21.23;8.85;;;;;;;21.68;83.58;100697.03;5052493;28;20036;-64
2022/07/25 07:09:50;;;;;;;20.73;8.52;;;;;;;21.70;84.94;100694.28;5052899;28;20099;-65
2022/07/25 07:12:15;;;;;;;20.63;8.45;;;;;;;21.70;85.72;100697.81;5053055;28;20033;-65
2022/07/25 07:14:42;;;;;;;22.50;8.88;;;;;;;21.67;84.98;100699.75;5053127;28;20036;-65
2022/07/25 07:17:07;;;;;;;20.88;7.90;;;;;;;21.69;85.36;100695.19;5052864;28;20459;-64
2022/07/25 07:19:33;;;;;;;20.00;7.47;;;;;;;21.81;83.95;100700.03;5053159;28;20028;-64
2022/07/25 07:21:59;;;;;;;21.80;7.85;;;;;;;22.00;84.87;100696.50;5053269;28;20480;-65
2022/07/25 07:24:24;;;;;;;20.67;7.80;;;;;;;22.19;84.99;100694.72;5052606;28;20029;-65
2022/07/25 07:26:49;;;;;;;20.58;7.07;;;;;;;22.21;82.23;100691.97;5048799;28;20169;-65
2022/07/25 07:29:15;;;;;;;19.88;6.82;;;;;;;22.24;82.27;100698.06;5051099;28;20025;-65
2022/07/25 07:31:40;;;;;;;17.60;6.45;;;;;;;22.25;81.78;100698.91;5050816;28;20021;-64
2022/07/25 07:34:06;;;;;;;19.27;5.95;;;;;;;22.14;82.76;100695.88;5050668;28;20024;-65
2022/07/25 07:36:31;;;;;;;18.60;6.10;;;;;;;22.19;83.76;100712.69;5051091;28;20061;-65
2022/07/25 07:38:57;;;;;;;18.65;5.82;;;;;;;22.13;84.26;100705.75;5048841;28;20020;-65
2022/07/25 07:41:22;;;;;;;18.83;5.30;;;;;;;22.01;83.92;100707.19;5050784;28;20549;-66
2022/07/25 07:43:47;;;;;;;19.98;5.15;;;;;;;21.94;85.74;100705.72;5050160;28;20028;-65
2022/07/25 07:46:13;;;;;;;15.85;4.50;;;;;;;21.88;86.07;100709.56;5050839;28;20102;-65
2022/07/25 07:48:38;;;;;;;16.13;4.55;;;;;;;21.86;85.98;100714.16;5050866;28;20112;-65
2022/07/25 07:51:04;;;;;;;17.17;4.00;;;;;;;22.04;86.40;100707.06;5050342;28;20064;-65
2022/07/25 07:56:15;;;;;;;15.70;4.30;;;;;;;22.99;83.69;100711.56;5048628;28;20146;-64
2022/07/25 07:58:40;;;;;;;17.05;4.00;;;;;;;23.43;82.40;100710.31;5050875;28;20029;-64
2022/07/25 08:01:05;;;;;;;15.70;3.90;;;;;;;23.61;82.65;100709.34;5049088;28;20027;-64
2022/07/25 08:03:31;;;;;;;16.02;4.07;;;;;;;23.62;79.28;100721.91;5050489;28;20021;-64
2022/07/25 08:05:57;;;;;;;16.45;3.53;;;;;;;23.73;79.53;100718.63;5050796;28;20033;-64
2022/07/25 08:08:22;;;;;;;12.45;3.15;;;;;;;23.71;78.80;100715.16;5050176;28;20451;-64
2022/07/25 08:10:48;;;;;;;13.93;3.35;;;;;;;23.56;77.96;100718.63;5050323;28;20036;-65
2022/07/25 08:13:18;;;;;;;15.00;3.30;;;;;;;23.48;78.55;100716.34;5050487;28;20396;-66
2022/07/25 08:15:46;;;;;;;15.20;3.13;;;;;;;23.68;82.00;100718.88;5049238;28;20028;-64
2022/07/25 08:18:12;;;;;;;15.55;3.20;;;;;;;23.50;78.83;100717.13;5050687;28;20051;-65
2022/07/25 08:20:38;;;;;;;12.27;2.92;;;;;;;23.35;80.20;100729.59;5054439;28;20100;-65
2022/07/25 08:23:04;;;;;;;12.25;3.05;;;;;;;23.15;82.10;100727.88;5054495;28;20444;-64
2022/07/25 08:25:30;;;;;;;11.73;2.78;;;;;;;23.19;82.91;100718.69;5053530;28;20387;-65
2022/07/25 08:27:55;;;;;;;13.70;2.90;;;;;;;23.45;82.58;100722.75;5054582;28;20061;-64
2022/07/25 08:30:21;;;;;;;14.68;3.10;;;;;;;23.49;81.46;100718.97;5054482;28;20249;-64
2022/07/25 08:32:49;;;;;;;14.82;3.25;;;;;;;23.33;81.10;100721.56;5053980;28;20017;-64
2022/07/25 08:35:16;;;;;;;13.07;3.03;;;;;;;23.36;81.91;100717.84;5054050;28;20037;-64
2022/07/25 08:37:41;;;;;;;14.10;3.20;;;;;;;23.42;83.08;100722.06;5054204;28;20029;-64
2022/07/25 08:40:07;;;;;;;15.88;3.00;;;;;;;23.58;83.27;100741.88;5053473;28;20029;-65
2022/07/25 08:42:33;;;;;;;13.85;2.90;;;;;;;23.75;81.13;100742.81;5054356;28;20112;-64
2022/07/25 08:45:03;;;;;;;13.60;3.03;;;;;;;24.06;79.32;100734.03;5053628;28;20116;-65
2022/07/25 08:47:29;;;;;;;11.80;3.00;;;;;;;24.18;77.22;100732.47;5054122;28;20021;-64
2022/07/25 08:49:55;;;;;;;12.10;2.80;;;;;;;24.66;76.72;100724.47;5055998;28;20065;-64
2022/07/25 08:52:22;;;;;;;13.07;2.90;;;;;;;24.98;72.36;100725.31;5055923;28;20017;-64
2022/07/25 08:54:48;;;;;;;16.02;3.45;;;;;;;25.19;71.35;100727.72;5055760;28;20033;-65
2022/07/25 08:57:14;;;;;;;13.73;2.80;;;;;;;25.41;71.77;100724.66;5056073;28;20025;-65
2022/07/25 08:59:40;;;;;;;14.15;2.85;;;;;;;25.17;69.45;100743.19;5055870;28;20123;-64
2022/07/25 09:02:07;;;;;;;13.27;2.80;;;;;;;24.88;70.13;100734.94;5055785;28;20086;-65
2022/07/25 09:04:36;;;;;;;13.45;2.80;;;;;;;24.52;72.95;100739.59;5055840;28;20021;-65
2022/07/25 09:07:03;;;;;;;15.85;2.80;;;;;;;24.70;75.19;100737.72;5055470;28;20048;-65
2022/07/25 09:09:34;;;;;;;12.13;2.80;;;;;;;24.91;71.64;100734.75;5055344;28;20028;-65
2022/07/25 09:11:59;;;;;;;16.10;3.05;;;;;;;25.03;71.87;100739.47;5055497;28;20053;-64
2022/07/25 09:14:25;;;;;;;12.45;3.13;;;;;;;25.23;72.05;100750.94;5055224;28;20064;-64
2022/07/25 09:16:50;;;;;;;16.92;3.25;;;;;;;25.18;73.69;100728.72;5055547;28;20459;-64
2022/07/25 09:19:18;;;;;;;14.60;3.20;;;;;;;25.47;69.46;100737.81;5055813;28;20112;-65
2022/07/25 09:21:56;;;;;;;12.32;3.20;;;;;;;25.39;68.39;100746.38;5055177;28;20052;-64
2022/07/25 09:24:21;;;;;;;14.32;3.35;;;;;;;25.05;69.00;100742.94;5051978;28;20032;-65
2022/07/25 09:26:52;;;;;;;16.55;3.45;;;;;;;25.12;70.12;100742.56;5049985;28;20017;-67
2022/07/25 09:29:25;;;;;;;13.93;3.20;;;;;;;24.86;68.53;100759.34;5053016;28;20531;-66
2022/07/25 09:31:52;;;;;;;13.68;3.10;;;;;;;24.77;70.75;100762.56;5050342;28;20108;-67
2022/07/25 09:34:34;;;;;;;13.55;3.25;;;;;;;24.98;68.78;100741.53;5051375;28;20025;-66
2022/07/25 09:37:04;;;;;;;17.55;3.20;;;;;;;25.00;70.28;100765.78;5051676;28;20027;-66
2022/07/25 09:39:33;;;;;;;13.52;3.25;;;;;;;25.06;66.35;100771.72;5053619;28;20117;-64
2022/07/25 09:41:59;;;;;;;14.88;3.38;;;;;;;24.98;66.62;100779.38;5052374;28;20466;-66
2022/07/25 09:44:31;;;;;;;16.15;3.83;;;;;;;24.92;67.26;100774.34;5047938;28;20060;-66
2022/07/25 09:47:00;;;;;;;16.13;3.80;;;;;;;25.12;67.18;100783.13;5049965;28;20388;-65
2022/07/25 09:49:38;;;;;;;13.32;3.40;;;;;;;24.83;65.32;100797.34;5050517;28;20057;-67
2022/07/25 09:52:05;;;;;;;15.85;3.70;;;;;;;24.74;66.09;100780.78;5050502;28;20357;-65
2022/07/25 09:54:31;;;;;;;15.82;3.60;;;;;;;25.16;67.06;100769.34;5050496;28;20384;-66
2022/07/25 09:56:56;;;;;;;16.58;3.47;;;;;;;25.92;62.89;100784.72;5051223;28;20031;-65
2022/07/25 09:59:22;;;;;;;14.35;3.35;;;;;;;26.63;60.84;100779.44;5049412;28;20021;-65
2022/07/25 10:01:59;;;;;;;14.57;3.58;;;;;;;27.68;52.99;100783.44;5051134;28;20063;-69
2022/07/25 10:04:48;;;;;;;16.42;3.40;;;;;;;28.65;49.95;100786.66;5050944;28;20053;-69
2022/07/25 10:07:18;;;;;;;16.92;3.80;;;;;;;29.02;48.09;100789.38;5052357;28;20129;-66
2022/07/25 10:09:48;;;;;;;14.00;3.42;;;;;;;28.91;48.14;100792.03;5052327;28;20031;-67
2022/07/25 10:12:18;;;;;;;14.40;3.60;;;;;;;29.49;48.22;100784.97;5050980;28;20025;-65
2022/07/25 10:15:03;;;;;;;14.25;3.47;;;;;;;30.16;45.65;100786.19;5052021;28;20478;-64
2022/07/25 10:17:29;;;;;;;12.88;3.30;;;;;;;30.37;42.02;100799.06;5047742;28;20028;-65
2022/07/25 10:19:54;;;;;;;13.32;3.38;;;;;;;29.14;45.59;100785.75;5054237;28;20044;-65
2022/07/25 10:22:20;;;;;;;16.10;3.20;;;;;;;29.76;44.55;100781.09;5054347;28;20025;-65
2022/07/25 10:24:46;;;;;;;14.65;3.50;;;;;;;29.93;43.32;100778.94;5053896;28;20029;-65
2022/07/25 10:27:20;;;;;;;17.25;3.20;;;;;;;29.50;44.91;100783.97;5053050;28;20435;-65
2022/07/25 10:29:51;;;;;;;13.95;3.50;;;;;;;27.96;46.50;100781.50;5054046;28;20406;-65
2022/07/25 10:32:17;;;;;;;12.98;3.35;;;;;;;27.54;49.08;100780.78;5053910;28;20376;-64
2022/07/25 10:34:51;;;;;;;14.48;3.25;;;;;;;27.94;49.84;100778.91;5053722;28;20029;-64
2022/07/25 10:37:17;;;;;;;13.82;3.30;;;;;;;28.32;45.81;100790.78;5054157;28;20032;-64
2022/07/25 10:39:43;;;;;;;12.80;3.30;;;;;;;29.20;43.57;100793.47;5053648;28;20029;-64
2022/07/25 10:42:13;;;;;;;11.85;3.20;;;;;;;29.73;43.31;100797.69;5048923;28;20033;-69
2022/07/25 10:44:44;;;;;;;12.02;3.40;;;;;;;29.69;41.43;100807.94;5049098;28;20032;-69
2022/07/25 10:47:12;;;;;;;12.82;3.30;;;;;;;28.52;43.91;100795.66;5051064;28;20021;-67
2022/07/25 10:49:40;;;;;;;11.80;3.40;;;;;;;28.06;44.87;100798.97;5051636;28;20411;-73
2022/07/25 10:52:13;;;;;;;11.10;3.70;;;;;;;28.14;44.95;100798.41;5051627;28;20119;-68
2022/07/25 10:54:38;;;;;;;11.90;3.63;;;;;;;28.80;43.25;100807.28;5030040;28;20124;-69
2022/07/25 10:57:12;;;;;;;12.23;3.30;;;;;;;29.05;42.14;100808.19;5051881;28;20111;-70
2022/07/25 10:59:38;;;;;;;11.77;3.30;;;;;;;28.64;42.73;100803.94;5051059;28;20035;-69
2022/07/25 11:02:15;;;;;;;15.35;3.45;;;;;;;28.44;44.54;100811.69;5051963;28;20143;-70
2022/07/25 11:04:41;;;;;;;11.27;3.35;;;;;;;28.28;45.56;100811.91;5047234;28;20483;-68
2022/07/25 11:07:15;;;;;;;13.10;3.63;;;;;;;27.93;46.32;100806.16;5050151;28;20103;-67
2022/07/25 11:09:41;;;;;;;15.02;3.92;;;;;;;27.38;46.36;100817.13;5051405;28;20029;-70
2022/07/25 11:12:08;;;;;;;16.60;4.50;;;;;;;26.91;49.51;100815.66;5051460;28;20534;-66